Terminal Aerodrome Forecast
Issued by NWS

Home | Current Version | Previous Version | Text Only | Print | Product List | Glossary On
Versions: 1 2 3 4 5 6 7 8 9 10 11 12 13
000
FTUS46 KMTR 201100
TAFSJC
TAF
KSJC 201129Z 2012/2112 13003KT P6SM OVC018
     FM201700 15005KT P6SM BKN020 OVC030
      TEMPO 2018/2021 -RA
     FM202100 30012KT P6SM SCT025 BKN035
     FM210400 29007KT P6SM SCT025
     FM211000 VRB03KT P6SM SCT015=

USA.gov is the U.S. government's official web portal to all federal, state and local government web resources and services.